Flight Track Log - Related Links

Times and Time Zones

All times are in EST time to prevent confusion due to time zone crossing. See the OPT332 flight status page for this flight to view local times or setup timezone preferences in your user account.

Time Position Orientation Groundspeed Altitude Reporting Facility
EST Latitude Longitude Course Direction KTS MPH feet Rate Location/Type
Sat 03:26:00 PM 37.4378 -107.0062 90° East  Level Estimated
Sat 03:27:00 PM 37.4850 -106.8811 84° East  Level Estimated
Sat 03:27:49 PM 37.1889 -107.4109 84° East 397 457 23,800  Level FlightAware ADS-B
Sat 03:28:23 PM 37.2128 -107.3378 68° East 401 461 25,300 2,719 Climbing FlightAware ADS-B
Sat 03:28:53 PM 37.2334 -107.2747 68° East 406 467 26,700 2,719 Climbing FlightAware ADS-B
Sat 03:29:27 PM 37.2583 -107.1982 68° East 408 470 28,200 2,677 Climbing FlightAware ADS-B
Sat 03:29:58 PM 37.2798 -107.1320 68° East 410 472 29,600 2,667 Climbing FlightAware ADS-B
Sat 03:30:30 PM 37.3032 -107.0598 68° East 411 473 31,000 2,323 Climbing FlightAware ADS-B
Sat 03:31:00 PM 37.3248 -106.9929 68° East 419 482 32,000 1,905 Climbing FlightAware ADS-B
Sat 03:31:33 PM 37.3491 -106.9174 68° East 428 493 33,000 2,095 Climbing FlightAware ADS-B
Sat 03:32:03 PM 37.3712 -106.8488 68° East 424 488 34,200 2,190 Climbing FlightAware ADS-B
Sat 03:32:36 PM 37.3954 -106.7734 68° East 418 481 35,300 1,791 Climbing FlightAware ADS-B
Sat 03:33:10 PM 37.4196 -106.6977 68° East 418 481 36,200 1,500 Climbing FlightAware ADS-B (KGUC)
Sat 03:33:40 PM 37.4406 -106.6317 68° East 422 486 36,900 800 Climbing FlightAware ADS-B
Sat 03:34:10 PM 37.4633 -106.5606 68° East 437 503 37,000 98 Climbing FlightAware ADS-B
Sat 03:34:41 PM 37.4872 -106.4855 68° East 451 519 37,000  Level FlightAware ADS-B
Sat 03:35:11 PM 37.5102 -106.4127 68° East 452 520 37,000  Level FlightAware ADS-B
Sat 03:35:46 PM 37.5373 -106.3267 68° East 452 520 37,000  Level FlightAware ADS-B
Sat 03:36:16 PM 37.5606 -106.2529 68° East 453 521 37,000  Level FlightAware ADS-B
Sat 03:36:48 PM 37.5771 -106.2004 68° East 456 525 37,000 286 Level FlightAware ADS-B (KGUC)
Sat 03:37:19 PM 37.6093 -106.0975 68° East 457 526 37,300 1,048 Climbing FlightAware ADS-B
Sat 03:37:51 PM 37.6339 -106.0188 68° East 455 524 38,100 1,524 Climbing FlightAware ADS-B (KGUC)
Sat 03:38:22 PM 37.6576 -105.9428 68° East 446 513 38,900 1,355 Climbing FlightAware ADS-B
Sat 03:38:53 PM 37.6802 -105.8699 69° East 446 513 39,500 1,082 Climbing FlightAware ADS-B (KGUC)
Sat 03:39:23 PM 37.7033 -105.7957 69° East 446 513 40,000 1,065 Climbing FlightAware ADS-B (EGHH / BOH)
Sat 03:39:55 PM 37.7272 -105.7182 69° East 442 509 40,600 1,065 Climbing FlightAware ADS-B
Sat 03:40:25 PM 37.7492 -105.6467 69° East 439 505 41,100 984 Climbing FlightAware ADS-B
Sat 03:40:56 PM 37.7720 -105.5725 69° East 436 502 41,600 984 Climbing FlightAware ADS-B
Sat 03:41:26 PM 37.7936 -105.5019 69° East 433 498 42,100 1,000 Climbing FlightAware ADS-B
Sat 03:41:56 PM 37.8150 -105.4321 69° East 429 494 42,600 1,000 Climbing FlightAware ADS-B
Sat 03:42:26 PM 37.8361 -105.3630 69° East 434 499 43,100 984 Climbing FlightAware ADS-B
Sat 03:42:57 PM 37.8580 -105.2911 69° East 450 518 43,600 857 Climbing FlightAware ADS-B
Sat 03:44:04 PM 37.9058 -105.1317 69° East 439 505 44,500 656 Climbing Denver Center
Sat 03:45:05 PM 37.9469 -104.9969 69° East 431 496 45,000 244 Climbing Denver Center
Sat 03:46:07 PM 37.9889 -104.8544 69° East 443 510 45,000  Level Denver Center
Sat 03:47:20 PM 38.0411 -104.6814 69° East 463 533 45,000  Level Denver Center
Sat 03:48:22 PM 38.1003 -104.4811 69° East 472 543 45,000  Level Denver Center
Sat 03:49:23 PM 38.1447 -104.3300 69° East 474 545 45,000  Level Denver Center
Sat 03:50:25 PM 38.1894 -104.1756 70° East 481 554 45,000  Level Denver Center
Sat 03:51:26 PM 38.2400 -104.0036 69° East 480 552 45,000  Level Denver Center
Sat 03:52:28 PM 38.2864 -103.8431 70° East 483 556 45,000  Level Denver Center
Sat 03:53:29 PM 38.3308 -103.6869 70° East 487 560 45,000  Level Denver Center
Sat 03:54:30 PM 38.3833 -103.5042 70° East 491 565 45,000  Level Denver Center
Sat 03:55:32 PM 38.4303 -103.3347 70° East 491 565 45,000  Level Denver Center
Sat 03:56:33 PM 38.4758 -103.1753 70° East 498 573 45,000  Level Denver Center
Sat 03:57:35 PM 38.5272 -102.9914 70° East 493 567 45,000  Level Denver Center
Sat 03:58:36 PM 38.5725 -102.8281 70° East 496 571 45,000  Level Denver Center
Sat 03:59:50 PM 38.6300 -102.6208 70° East 494 568 45,000  Level Denver Center
Sat 04:00:52 PM 38.6736 -102.4614 71° East 496 571 45,000  Level Denver Center
Sat 04:01:53 PM 38.7175 -102.3014 71° East 497 572 45,000  Level Denver Center
Sat 04:07:43 PM 38.9754 -101.3347 71° East 472 543 45,000  Level FlightAware ADS-B (EGHH / BOH)
Sat 04:08:38 PM 39.0116 -101.2140 69° East 477 549 45,000  Level FlightAware ADS-B (EGHH / BOH)
Sat 04:09:09 PM 39.0483 -101.1118 65° Northeast 479 551 45,000  Level FlightAware ADS-B (EGHH / BOH)
Sat 04:09:40 PM 39.0761 -101.0330 66° East 481 554 45,000  Level FlightAware ADS-B (EGHH / BOH)
Sat 04:10:21 PM 39.1143 -100.9249 65° Northeast 484 557 45,000  Level FlightAware ADS-B (EGHH / BOH)
Sat 04:11:19 PM 39.1667 -100.7781 65° Northeast 485 558 45,000  Level Denver Center
Sat 04:12:21 PM 39.2197 -100.6253 66° East 488 562 45,000  Level Denver Center
Sat 04:13:22 PM 39.2742 -100.4733 65° Northeast 488 562 45,000  Level Denver Center
Sat 04:14:23 PM 39.3358 -100.2931 66° East 492 566 45,000  Level Denver Center
Sat 04:15:25 PM 39.3886 -100.1386 66° East 492 566 45,000  Level Denver Center
Sat 04:16:26 PM 39.4517 -99.9575 66° East 494 568 45,000  Level Denver Center
Sat 04:22:28 PM 39.7881 -98.9571 66° East 499 574 45,000  Level FlightAware ADS-B
Sat 04:27:12 PM 40.0453 -98.1683 67° East 501 577 45,000  Level FlightAware ADS-B
Sat 04:28:39 PM 40.1047 -97.9829 67° East 500 575 45,000  Level FlightAware ADS-B
Sat 04:29:50 PM 40.1848 -97.7304 67° East 499 574 45,000  Level FlightAware ADS-B
Sat 04:31:09 PM 40.2536 -97.5121 68° East 498 573 45,000  Level FlightAware ADS-B
Sat 04:31:58 PM 40.2847 -97.4103 68° East 498 573 45,000  Level Minneapolis Center
Sat 04:32:59 PM 40.3444 -97.2183 68° East 497 572 45,000  Level Minneapolis Center
Sat 04:38:40 PM 40.6369 -96.2620 68° East 488 562 45,000  Level FlightAware ADS-B
Sat 04:39:10 PM 40.6567 -96.1933 68° East 487 560 45,000  Level Minneapolis Center
Sat 04:40:11 PM 40.7067 -96.0283 68° East 488 562 45,000  Level Minneapolis Center
Sat 04:41:13 PM 40.7558 -95.8608 69° East 492 566 45,000  Level Minneapolis Center
Sat 04:42:15 PM 40.8044 -95.6947 69° East 490 564 45,000  Level Minneapolis Center
Sat 04:43:16 PM 40.8533 -95.5253 69° East 496 571 45,000  Level Minneapolis Center
Sat 04:44:18 PM 40.9122 -95.3242 69° East 495 570 45,000  Level Minneapolis Center
Sat 04:45:20 PM 40.9611 -95.1569 69° East 492 566 45,000 -1,474 Level Minneapolis Center
Sat 04:51:01 PM 41.1755 -94.1523 69° East 497 572 35,100 -1,536 Descending FlightAware ADS-B
Sat 04:52:14 PM 41.1796 -94.1007 84° East 500 575 34,400 -1,538 Descending FlightAware ADS-B
Sat 04:53:41 PM 41.2724 -93.6766 74° East 502 578 31,000 -1,771 Descending FlightAware ADS-B
Sat 04:59:04 PM 41.5580 -92.7770 67° East 472 543 22,300 -1,661 Descending FlightAware ADS-B (LPVM)
Sat 04:59:35 PM 41.5842 -92.6930 67° East 477 549 21,200 -2,400 Descending FlightAware ADS-B (LPVM)
Sat 05:00:14 PM 41.6173 -92.5866 67° East 466 536 19,500 -2,714 Descending FlightAware ADS-B (LPVM)
Sat 05:00:59 PM 41.6530 -92.4713 67° East 448 516 17,400 -2,463 Descending FlightAware ADS-B (LPVM)
Sat 05:01:49 PM 41.6819 -92.3779 67° East 437 503 15,600 -2,491 Descending FlightAware ADS-B (LPVM)
Sat 05:02:45 PM 41.7308 -92.2175 67° East 436 502 13,000 -2,593 Descending Chicago Center
Sat 05:03:47 PM 41.7744 -92.0778 67° East 419 482 10,500 -2,049 Descending Chicago Center
Sat 05:04:48 PM 41.8394 -91.9869 46° Northeast 356 410 8,800 -2,000 Descending Chicago Center
Sat 05:05:50 PM 41.9122 -91.9200 34° Northeast 325 374 6,400 -2,565 Descending Chicago Center
Sat 05:06:52 PM 41.9642 -91.8375 50° Northeast 323 372 3,500 -2,146 Descending Chicago Center
Sat 05:07:53 PM 41.9361 -91.7642 117° Southeast 230 265 2,000 -878 Descending Chicago Center
Sat 05:08:55 PM 41.9119 -91.7342 137° Southeast 172 198 1,700 -290 Descending Chicago Center
Sat 05:10:00 PM 41.8833 -91.7000 66° East  Level FlightAware Approximate
Sat 05:17:00 PM 41.8847 -91.7108 66° East  Level Estimated

Login

Don't have an account? Register now (free) for customized features, flight alerts, and more!